Tokuyo Maru No.15 — JD2184 — position and weather

sailwx.info

Track history (hours):
 
Tides and Currents Weather Stations Pressure Air Temp Water Temp Dewpoint Dewpoint Depression Visibility Wind Speed Wind Dir Waves Ship Positions

Tokuyo Maru No.15

Last reported at 2016-Aug-25 17:25 UTC. Time now 2016-Aug-25 18:28 UTC.
Position N 35°15' E 140°30'.

Length 66 m; draft 4.5 m.

Type: Tanker. MMSI: 431402034.

Date/timePositionNaut miles runAvg speedWind from/ knotsBaromVisibWave heightAir tempDewpointWater temp
2016-Aug-25 17:25N 35°15' E 140°30'1011.6
2016-Aug-25 16:33N 35°23' E 140°37'1211.7
2016-Aug-25 15:33N 35°32' E 140°46'1211.8
2016-Aug-25 14:33N 35°42' E 140°54'1210.9
2016-Aug-25 13:29N 35°53' E 140°48'5 5.2
2016-Aug-25 12:31N 35°57' E 140°45'0 0.0
2016-Aug-25 11:32N 35°57' E 140°45'0 0.1
2016-Aug-25 10:33N 35°57' E 140°45'4 4.4
2016-Aug-25 09:32N 35°54' E 140°41'0 0.0
2016-Aug-25 08:32N 35°54' E 140°41'0 0.0
2016-Aug-25 07:29N 35°54' E 140°41'0 0.0
2016-Aug-25 06:26N 35°54' E 140°41'4 0.9
2016-Aug-25 02:29N 35°57' E 140°42'20 9.4
2016-Aug-25 00:23N 35°39' E 140°51'1111.4
2016-Aug-24 23:25N 35°30' E 140°43'1011.7
2016-Aug-24 22:33N 35°22' E 140°35'2411.8
2016-Aug-24 20:32N 35°04' E 140°16'1812.7
2016-Aug-24 19:05N 34°53' E 139°58'21 0.5
2016-Aug-23 00:33N 35°12' E 139°45'1111.2
2016-Aug-22 23:33N 35°23' E 139°42'1211.4
2016-Aug-22 22:33N 35°31' E 139°52'6 6.5
2016-Aug-22 21:33N 35°37' E 139°56'0 0.0
2016-Aug-22 20:33N 35°37' E 139°56'0 0.0
2016-Aug-22 19:03N 35°37' E 139°56'0 0.0
2016-Aug-22 18:33N 35°37' E 139°56'0 0.0
2016-Aug-22 17:15N 35°37' E 139°56'0 0.0
2016-Aug-22 16:33N 35°37' E 139°56'0 0.0
2016-Aug-22 15:27N 35°37' E 139°56'0 0.0
2016-Aug-22 14:21N 35°37' E 139°56'0 0.0
2016-Aug-22 13:33N 35°37' E 139°56'0 0.0
2016-Aug-22 12:31N 35°37' E 139°56'0 0.1
2016-Aug-22 11:33N 35°37' E 139°56'0 0.0
2016-Aug-22 10:32N 35°37' E 139°56'0 0.0
2016-Aug-22 09:29N 35°37' E 139°56'0 0.0
2016-Aug-22 08:33N 35°37' E 139°56'0 0.0
2016-Aug-22 07:33N 35°37' E 139°56'0 0.1
2016-Aug-22 06:33N 35°37' E 139°56'0 0.1
2016-Aug-22 05:31N 35°36' E 139°56'0 0.1
2016-Aug-22 04:31N 35°36' E 139°56'0 0.0
2016-Aug-22 03:32N 35°36' E 139°56'0 0.0
2016-Aug-22 02:31N 35°36' E 139°56'0 0.0
2016-Aug-22 01:27N 35°36' E 139°56'0 0.0
2016-Aug-22 00:33N 35°36' E 139°56'0 0.0
2016-Aug-21 23:33N 35°36' E 139°56'0 0.0
2016-Aug-21 22:27N 35°36' E 139°56'0 0.1
2016-Aug-21 21:22N 35°36' E 139°56'0 0.0
2016-Aug-21 20:32N 35°36' E 139°56'0 0.1
2016-Aug-21 19:24N 35°37' E 139°56'0 0.0
2016-Aug-21 18:20N 35°37' E 139°56'0 0.1
2016-Aug-21 17:32N 35°37' E 139°56'0 0.0
2016-Aug-21 16:17N 35°37' E 139°56'0 0.0
2016-Aug-21 15:33N 35°37' E 139°56'0 0.1
2016-Aug-21 14:29N 35°36' E 139°56'0 0.0
2016-Aug-21 13:29N 35°36' E 139°56'0 0.0
2016-Aug-21 12:24N 35°36' E 139°56'0 0.0
2016-Aug-21 11:26N 35°36' E 139°56'0 0.0
2016-Aug-21 10:26N 35°36' E 139°56'0 0.0
2016-Aug-21 09:29N 35°36' E 139°56'5 5.3
2016-Aug-21 08:33N 35°33' E 140°01'3 2.6
2016-Aug-21 07:33N 35°32' E 140°03'0 0.0
2016-Aug-21 06:30N 35°32' E 140°03'0 0.0
2016-Aug-21 05:30N 35°32' E 140°03'2 2.0
2016-Aug-21 04:28N 35°33' E 140°01'0 0.4
2016-Aug-21 03:29N 35°32' E 140°01'7 7.6
2016-Aug-21 02:33N 35°30' E 139°53'1110.9
2016-Aug-21 01:34N 35°21' E 139°45'10 9.8
2016-Aug-21 00:33N 35°12' E 139°47'  
2016-Aug-18 16:33N 35°00' E 140°11'2110.3
2016-Aug-18 14:33N 35°14' E 140°29'1010.2
2016-Aug-18 13:33N 35°22' E 140°36'36 8.9
2016-Aug-18 09:33N 35°58' E 140°44'4 4.1
2016-Aug-18 08:28N 35°54' E 140°41'0 0.0
2016-Aug-18 07:22N 35°54' E 140°41'0 0.0
2016-Aug-18 06:31N 35°54' E 140°41'0 0.0
2016-Aug-18 05:31N 35°54' E 140°41'2 2.4
2016-Aug-18 04:32N 35°56' E 140°42'1 0.2
2016-Aug-18 00:15N 35°57' E 140°42'27 9.6
2016-Aug-17 21:23N 35°29' E 140°43'1213.4
2016-Aug-17 20:29N 35°20' E 140°34'1813.6
2016-Aug-17 19:10N 35°06' E 140°20'813.5
2016-Aug-17 18:33N 35°02' E 140°11'1313.1
2016-Aug-17 17:33N 34°54' E 139°58'1110.5
2016-Aug-17 16:32N 34°57' E 139°45'1111.2
2016-Aug-17 15:31N 35°08' E 139°46'1111.3
2016-Aug-17 14:33N 35°19' E 139°43'1010.1
2016-Aug-17 13:33N 35°28' E 139°49'7 7.3
2016-Aug-17 12:33N 35°33' E 139°55'0 0.0
2016-Aug-17 11:33N 35°33' E 139°55'0 0.0
2016-Aug-17 10:32N 35°33' E 139°55'0 0.0
2016-Aug-17 09:32N 35°33' E 139°55'0 0.0
2016-Aug-17 08:32N 35°33' E 139°55'0 0.0
2016-Aug-17 07:22N 35°33' E 139°55'0 0.0
2016-Aug-17 06:33N 35°33' E 139°55'0 0.0
2016-Aug-17 03:29N 35°33' E 139°55'0 0.0
2016-Aug-17 02:33N 35°33' E 139°55'0 0.0
2016-Aug-17 01:16N 35°33' E 139°55'0 0.0
2016-Aug-17 00:32N 35°33' E 139°55'0 0.0
2016-Aug-16 23:32N 35°33' E 139°55'0 0.0
2016-Aug-16 22:31N 35°33' E 139°55'0 0.0
2016-Aug-16 21:32N 35°33' E 139°55'0 0.1
2016-Aug-16 20:33N 35°33' E 139°55'0 0.0
2016-Aug-16 19:30N 35°33' E 139°55'0 0.0
2016-Aug-16 18:22N 35°33' E 139°55'0 0.0
2016-Aug-16 17:31N 35°33' E 139°55'0 0.0
2016-Aug-16 16:27N 35°33' E 139°55'0 0.1
2016-Aug-16 15:33N 35°33' E 139°55'0 0.0
2016-Aug-16 14:32N 35°33' E 139°55'0 0.1
2016-Aug-16 13:18N 35°33' E 139°55'6 8.7
2016-Aug-16 12:33N 35°31' E 140°02'0 0.3
2016-Aug-16 11:32N 35°31' E 140°03'0 0.0
2016-Aug-16 09:20N 35°31' E 140°03'0 0.0
2016-Aug-16 08:29N 35°31' E 140°03'0 0.0
2016-Aug-16 07:20N 35°31' E 140°03'0 0.0
2016-Aug-16 06:20N 35°31' E 140°03'2 1.1
2016-Aug-16 04:30N 35°32' E 140°01'5 5.5
2016-Aug-16 03:31N 35°35' E 139°55'0 0.0
2016-Aug-16 02:28N 35°35' E 139°55'0 0.0
2016-Aug-16 01:28N 35°35' E 139°56'0 0.0
2016-Aug-16 00:28N 35°35' E 139°56'0 0.0
2016-Aug-15 23:31N 35°35' E 139°56'0 0.0
2016-Aug-15 22:28N 35°35' E 139°56'0 0.0
2016-Aug-15 21:31N 35°35' E 139°56'0 0.0
2016-Aug-15 20:25N 35°35' E 139°56'0 0.1
2016-Aug-15 19:31N 35°35' E 139°56'0 0.0
2016-Aug-15 18:13N 35°35' E 139°56'0 0.0
2016-Aug-15 17:31N 35°35' E 139°56'  
Track history (hours):
 
Tides and Currents Weather Stations Pressure Air Temp Water Temp Dewpoint Dewpoint Depression Visibility Wind Speed Wind Dir Waves Ship Positions

Tokuyo Maru No.15

Last reported at 2016-Aug-25 17:25 UTC. Time now 2016-Aug-25 18:28 UTC.
Position N 35°15' E 140°30'.

Length 66 m; draft 4.5 m.

Type: Tanker. MMSI: 431402034.

Date/timePositionNaut miles runAvg speedWind from/ knotsBaromVisibWave heightAir tempDewpointWater temp
2016-Aug-25 17:25N 35°15' E 140°30'1011.6
2016-Aug-25 16:33N 35°23' E 140°37'1211.7
2016-Aug-25 15:33N 35°32' E 140°46'1211.8
2016-Aug-25 14:33N 35°42' E 140°54'1210.9
2016-Aug-25 13:29N 35°53' E 140°48'5 5.2
2016-Aug-25 12:31N 35°57' E 140°45'0 0.0
2016-Aug-25 11:32N 35°57' E 140°45'0 0.1
2016-Aug-25 10:33N 35°57' E 140°45'4 4.4
2016-Aug-25 09:32N 35°54' E 140°41'0 0.0
2016-Aug-25 08:32N 35°54' E 140°41'0 0.0
2016-Aug-25 07:29N 35°54' E 140°41'0 0.0
2016-Aug-25 06:26N 35°54' E 140°41'4 0.9
2016-Aug-25 02:29N 35°57' E 140°42'20 9.4
2016-Aug-25 00:23N 35°39' E 140°51'1111.4
2016-Aug-24 23:25N 35°30' E 140°43'1011.7
2016-Aug-24 22:33N 35°22' E 140°35'2411.8
2016-Aug-24 20:32N 35°04' E 140°16'1812.7
2016-Aug-24 19:05N 34°53' E 139°58'21 0.5
2016-Aug-23 00:33N 35°12' E 139°45'1111.2
2016-Aug-22 23:33N 35°23' E 139°42'1211.4
2016-Aug-22 22:33N 35°31' E 139°52'6 6.5
2016-Aug-22 21:33N 35°37' E 139°56'0 0.0
2016-Aug-22 20:33N 35°37' E 139°56'0 0.0
2016-Aug-22 19:03N 35°37' E 139°56'0 0.0
2016-Aug-22 18:33N 35°37' E 139°56'0 0.0
2016-Aug-22 17:15N 35°37' E 139°56'0 0.0
2016-Aug-22 16:33N 35°37' E 139°56'0 0.0
2016-Aug-22 15:27N 35°37' E 139°56'0 0.0
2016-Aug-22 14:21N 35°37' E 139°56'0 0.0
2016-Aug-22 13:33N 35°37' E 139°56'0 0.0
2016-Aug-22 12:31N 35°37' E 139°56'0 0.1
2016-Aug-22 11:33N 35°37' E 139°56'0 0.0
2016-Aug-22 10:32N 35°37' E 139°56'0 0.0
2016-Aug-22 09:29N 35°37' E 139°56'0 0.0
2016-Aug-22 08:33N 35°37' E 139°56'0 0.0
2016-Aug-22 07:33N 35°37' E 139°56'0 0.1
2016-Aug-22 06:33N 35°37' E 139°56'0 0.1
2016-Aug-22 05:31N 35°36' E 139°56'0 0.1
2016-Aug-22 04:31N 35°36' E 139°56'0 0.0
2016-Aug-22 03:32N 35°36' E 139°56'0 0.0
2016-Aug-22 02:31N 35°36' E 139°56'0 0.0
2016-Aug-22 01:27N 35°36' E 139°56'0 0.0
2016-Aug-22 00:33N 35°36' E 139°56'0 0.0
2016-Aug-21 23:33N 35°36' E 139°56'0 0.0
2016-Aug-21 22:27N 35°36' E 139°56'0 0.1
2016-Aug-21 21:22N 35°36' E 139°56'0 0.0
2016-Aug-21 20:32N 35°36' E 139°56'0 0.1
2016-Aug-21 19:24N 35°37' E 139°56'0 0.0
2016-Aug-21 18:20N 35°37' E 139°56'0 0.1
2016-Aug-21 17:32N 35°37' E 139°56'0 0.0
2016-Aug-21 16:17N 35°37' E 139°56'0 0.0
2016-Aug-21 15:33N 35°37' E 139°56'0 0.1
2016-Aug-21 14:29N 35°36' E 139°56'0 0.0
2016-Aug-21 13:29N 35°36' E 139°56'0 0.0
2016-Aug-21 12:24N 35°36' E 139°56'0 0.0
2016-Aug-21 11:26N 35°36' E 139°56'0 0.0
2016-Aug-21 10:26N 35°36' E 139°56'0 0.0
2016-Aug-21 09:29N 35°36' E 139°56'5 5.3
2016-Aug-21 08:33N 35°33' E 140°01'3 2.6
2016-Aug-21 07:33N 35°32' E 140°03'0 0.0
2016-Aug-21 06:30N 35°32' E 140°03'0 0.0
2016-Aug-21 05:30N 35°32' E 140°03'2 2.0
2016-Aug-21 04:28N 35°33' E 140°01'0 0.4
2016-Aug-21 03:29N 35°32' E 140°01'7 7.6
2016-Aug-21 02:33N 35°30' E 139°53'1110.9
2016-Aug-21 01:34N 35°21' E 139°45'10 9.8
2016-Aug-21 00:33N 35°12' E 139°47'  
2016-Aug-18 16:33N 35°00' E 140°11'2110.3
2016-Aug-18 14:33N 35°14' E 140°29'1010.2
2016-Aug-18 13:33N 35°22' E 140°36'36 8.9
2016-Aug-18 09:33N 35°58' E 140°44'4 4.1
2016-Aug-18 08:28N 35°54' E 140°41'0 0.0
2016-Aug-18 07:22N 35°54' E 140°41'0 0.0
2016-Aug-18 06:31N 35°54' E 140°41'0 0.0
2016-Aug-18 05:31N 35°54' E 140°41'2 2.4
2016-Aug-18 04:32N 35°56' E 140°42'1 0.2
2016-Aug-18 00:15N 35°57' E 140°42'27 9.6
2016-Aug-17 21:23N 35°29' E 140°43'1213.4
2016-Aug-17 20:29N 35°20' E 140°34'1813.6
2016-Aug-17 19:10N 35°06' E 140°20'813.5
2016-Aug-17 18:33N 35°02' E 140°11'1313.1
2016-Aug-17 17:33N 34°54' E 139°58'1110.5
2016-Aug-17 16:32N 34°57' E 139°45'1111.2
2016-Aug-17 15:31N 35°08' E 139°46'1111.3
2016-Aug-17 14:33N 35°19' E 139°43'1010.1
2016-Aug-17 13:33N 35°28' E 139°49'7 7.3
2016-Aug-17 12:33N 35°33' E 139°55'0 0.0
2016-Aug-17 11:33N 35°33' E 139°55'0 0.0
2016-Aug-17 10:32N 35°33' E 139°55'0 0.0
2016-Aug-17 09:32N 35°33' E 139°55'0 0.0
2016-Aug-17 08:32N 35°33' E 139°55'0 0.0
2016-Aug-17 07:22N 35°33' E 139°55'0 0.0
2016-Aug-17 06:33N 35°33' E 139°55'0 0.0
2016-Aug-17 03:29N 35°33' E 139°55'0 0.0
2016-Aug-17 02:33N 35°33' E 139°55'0 0.0
2016-Aug-17 01:16N 35°33' E 139°55'0 0.0
2016-Aug-17 00:32N 35°33' E 139°55'0 0.0
2016-Aug-16 23:32N 35°33' E 139°55'0 0.0
2016-Aug-16 22:31N 35°33' E 139°55'0 0.0
2016-Aug-16 21:32N 35°33' E 139°55'0 0.1
2016-Aug-16 20:33N 35°33' E 139°55'0 0.0
2016-Aug-16 19:30N 35°33' E 139°55'0 0.0
2016-Aug-16 18:22N 35°33' E 139°55'0 0.0
2016-Aug-16 17:31N 35°33' E 139°55'0 0.0
2016-Aug-16 16:27N 35°33' E 139°55'0 0.1
2016-Aug-16 15:33N 35°33' E 139°55'0 0.0
2016-Aug-16 14:32N 35°33' E 139°55'0 0.1
2016-Aug-16 13:18N 35°33' E 139°55'6 8.7
2016-Aug-16 12:33N 35°31' E 140°02'0 0.3
2016-Aug-16 11:32N 35°31' E 140°03'0 0.0
2016-Aug-16 09:20N 35°31' E 140°03'0 0.0
2016-Aug-16 08:29N 35°31' E 140°03'0 0.0
2016-Aug-16 07:20N 35°31' E 140°03'0 0.0
2016-Aug-16 06:20N 35°31' E 140°03'2 1.1
2016-Aug-16 04:30N 35°32' E 140°01'5 5.5
2016-Aug-16 03:31N 35°35' E 139°55'0 0.0
2016-Aug-16 02:28N 35°35' E 139°55'0 0.0
2016-Aug-16 01:28N 35°35' E 139°56'0 0.0
2016-Aug-16 00:28N 35°35' E 139°56'0 0.0
2016-Aug-15 23:31N 35°35' E 139°56'0 0.0
2016-Aug-15 22:28N 35°35' E 139°56'0 0.0
2016-Aug-15 21:31N 35°35' E 139°56'0 0.0
2016-Aug-15 20:25N 35°35' E 139°56'0 0.1
2016-Aug-15 19:31N 35°35' E 139°56'0 0.0
2016-Aug-15 18:13N 35°35' E 139°56'0 0.0
2016-Aug-15 17:31N 35°35' E 139°56'  

Dump ship's entire track history